Time;durP1;ratioP1;P1;durP2;ratioP2;P2;SDS_P1;SDS_P2;PMS_P1;PMS_P2;Temp;Humidity;BMP_temperature;BMP_pressure;BME280_temperature;BME280_humidity;BME280_pressure;Samples;Min_cycle;Max_cycle;Signal;HPM_P1;HPM_P2
2022/11/26 00:01:13;;;;;;;26.10;10.53;;;;;;;;;;5075137;28;20467;-68
2022/11/26 00:03:41;;;;;;;23.13;9.20;;;;;;;;;;5074387;28;20736;-68
2022/11/26 00:06:16;;;;;;;24.63;10.50;;;;;;;;;;5076247;28;20460;-68
2022/11/26 00:08:46;;;;;;;21.83;10.47;;;;;;;;;;5075763;28;20455;-68
2022/11/26 00:11:15;;;;;;;26.23;9.97;;;;;;;;;;5075176;28;20476;-68
2022/11/26 00:13:46;;;;;;;34.23;9.90;;;;;;;;;;5077052;28;20872;-68
2022/11/26 00:16:13;;;;;;;24.40;9.97;;;;;;;;;;5076608;28;20492;-68
2022/11/26 00:18:41;;;;;;;19.43;9.30;;;;;;;;;;5059624;28;20569;-68
2022/11/26 00:21:15;;;;;;;18.13;9.07;;;;;;;;;;5056494;28;20461;-68
2022/11/26 00:23:43;;;;;;;23.20;9.70;;;;;;;;;;5055838;28;20452;-68
2022/11/26 00:26:13;;;;;;;21.73;9.77;;;;;;;;;;5058105;28;20493;-68
2022/11/26 00:28:48;;;;;;;23.03;8.40;;;;;;;;;;5055449;28;20521;-68
2022/11/26 00:31:16;;;;;;;19.93;8.13;;;;;;;;;;5056020;28;20800;-68
2022/11/26 00:33:44;;;;;;;18.73;8.50;;;;;;;;;;5055648;28;20446;-68
2022/11/26 00:36:15;;;;;;;21.83;9.07;;;;;;;;;;5057561;28;20755;-68
2022/11/26 00:38:43;;;;;;;21.93;8.17;;;;;;;;;;5075274;28;20480;-68
2022/11/26 00:41:15;;;;;;;12.43;8.30;;;;;;;;;;5076759;28;20736;-69
2022/11/26 00:43:45;;;;;;;17.37;8.13;;;;;;;;;;5075803;28;20767;-68
2022/11/26 00:46:14;;;;;;;19.50;9.57;;;;;;;;;;5076118;28;20457;-68
2022/11/26 00:48:48;;;;;;;24.20;8.80;;;;;;;;;;5077260;28;20520;-69
2022/11/26 00:51:25;;;;;;;21.83;9.10;;;;;;;;;;5075657;28;20472;-68
2022/11/26 00:59:43;;;;;;;26.77;8.83;;;;;;;;;;5073303;28;20480;-67
2022/11/26 01:02:13;;;;;;;15.73;9.73;;;;;;;;;;5075342;28;20491;-68
2022/11/26 01:04:57;;;;;;;18.27;8.97;;;;;;;;;;5069615;28;20477;-67
2022/11/26 01:07:28;;;;;;;13.87;7.93;;;;;;;;;;5037946;28;20464;-69
2022/11/26 01:10:05;;;;;;;24.33;10.77;;;;;;;;;;5035048;28;20466;-67
2022/11/26 01:12:35;;;;;;;21.97;10.43;;;;;;;;;;5041466;28;20457;-69
2022/11/26 01:17:58;;;;;;;16.73;8.80;;;;;;;;;;5054382;28;20484;-68
2022/11/26 01:20:28;;;;;;;20.90;9.03;;;;;;;;;;5055254;28;20453;-68
2022/11/26 01:22:56;;;;;;;26.20;10.63;;;;;;;;;;5055675;28;20905;-67
2022/11/26 01:25:24;;;;;;;20.80;8.73;;;;;;;;;;5055077;28;20461;-68
2022/11/26 01:27:54;;;;;;;21.00;10.13;;;;;;;;;;5055604;28;20492;-67
2022/11/26 01:30:23;;;;;;;16.23;8.80;;;;;;;;;;5055631;28;20453;-67
2022/11/26 01:32:50;;;;;;;24.87;8.70;;;;;;;;;;5054632;28;20453;-68
2022/11/26 01:35:18;;;;;;;18.23;8.40;;;;;;;;;;5056037;28;20911;-67
2022/11/26 01:37:46;;;;;;;21.93;11.30;;;;;;;;;;5054694;28;20473;-67
2022/11/26 01:40:40;;;;;;;25.53;10.53;;;;;;;;;;5056066;28;20473;-68
2022/11/26 01:43:11;;;;;;;18.47;8.90;;;;;;;;;;5031073;28;20457;-68
2022/11/26 01:45:38;;;;;;;15.10;9.30;;;;;;;;;;5055450;28;20453;-68
2022/11/26 01:48:12;;;;;;;25.97;9.23;;;;;;;;;;5055635;28;20464;-67
2022/11/26 01:50:48;;;;;;;19.77;8.90;;;;;;;;;;5055352;28;20845;-68
2022/11/26 01:53:19;;;;;;;18.67;9.50;;;;;;;;;;5056261;28;20449;-68
2022/11/26 01:55:48;;;;;;;21.30;9.57;;;;;;;;;;5055233;28;20605;-68
2022/11/26 01:58:17;;;;;;;27.10;10.93;;;;;;;;;;5055411;28;20485;-68
2022/11/26 02:00:44;;;;;;;17.30;10.63;;;;;;;;;;5056121;28;20457;-68
2022/11/26 02:03:11;;;;;;;15.63;8.53;;;;;;;;;;5054140;28;20821;-68
2022/11/26 02:05:44;;;;;;;22.50;10.60;;;;;;;;;;5055531;28;20452;-67
2022/11/26 02:08:15;;;;;;;16.73;9.17;;;;;;;;;;5054566;28;20777;-68
2022/11/26 02:10:43;;;;;;;20.10;9.70;;;;;;;;;;5055482;28;20492;-67
2022/11/26 02:13:10;;;;;;;14.37;7.77;;;;;;;;;;5055702;28;20449;-67
2022/11/26 02:15:44;;;;;;;14.07;8.50;;;;;;;;;;5054538;28;20461;-67
2022/11/26 02:18:12;;;;;;;25.33;10.63;;;;;;;;;;5055540;28;20912;-67
2022/11/26 02:20:45;;;;;;;22.10;9.63;;;;;;;;;;5055924;28;20457;-67
2022/11/26 02:23:24;;;;;;;27.23;9.80;;;;;;;;;;5054698;28;20850;-67
2022/11/26 02:26:16;;;;;;;22.40;9.30;;;;;;;;;;5056185;28;20449;-68
2022/11/26 02:28:54;;;;;;;20.00;8.40;;;;;;;;;;5055657;28;20515;-68
2022/11/26 02:31:29;;;;;;;16.47;9.53;;;;;;;;;;5039225;28;20458;-68
2022/11/26 02:33:58;;;;;;;20.83;10.53;;;;;;;;;;5052104;28;20508;-67
2022/11/26 02:36:28;;;;;;;20.50;9.30;;;;;;;;;;5058902;28;20449;-67
2022/11/26 02:38:55;;;;;;;21.27;10.20;;;;;;;;;;5057932;28;20485;-67
2022/11/26 02:41:23;;;;;;;29.80;10.30;;;;;;;;;;5059463;28;20516;-67
2022/11/26 02:43:52;;;;;;;25.07;9.03;;;;;;;;;;5057638;28;20452;-68
2022/11/26 02:46:24;;;;;;;17.80;10.53;;;;;;;;;;5058641;28;20463;-67
2022/11/26 02:48:54;;;;;;;17.13;8.90;;;;;;;;;;5058593;28;20504;-67
2022/11/26 02:51:23;;;;;;;20.67;9.53;;;;;;;;;;5057173;28;20466;-67
2022/11/26 02:53:51;;;;;;;23.77;11.13;;;;;;;;;;5058574;28;21054;-68
2022/11/26 02:56:20;;;;;;;27.90;9.93;;;;;;;;;;5057504;28;20526;-67
2022/11/26 02:58:49;;;;;;;25.10;9.60;;;;;;;;;;5056823;28;20646;-68
2022/11/26 03:01:19;;;;;;;31.73;10.63;;;;;;;;;;5058337;28;20476;-67
2022/11/26 03:03:48;;;;;;;19.73;10.50;;;;;;;;;;5057230;28;20453;-67
2022/11/26 03:06:17;;;;;;;27.43;10.87;;;;;;;;;;5057717;28;20604;-67
2022/11/26 03:08:45;;;;;;;24.60;10.40;;;;;;;;;;5058536;28;20457;-67
2022/11/26 03:11:13;;;;;;;25.17;9.53;;;;;;;;;;5057575;28;20457;-68
2022/11/26 03:13:43;;;;;;;19.30;11.73;;;;;;;;;;5058686;28;20861;-67
2022/11/26 03:16:09;;;;;;;27.67;12.10;;;;;;;;;;5056993;28;20457;-67
2022/11/26 03:18:42;;;;;;;24.87;9.87;;;;;;;;;;5058482;28;20523;-67
2022/11/26 03:21:09;;;;;;;25.20;9.27;;;;;;;;;;5058255;28;20908;-68
2022/11/26 03:23:37;;;;;;;30.63;11.90;;;;;;;;;;5057261;28;20556;-68
2022/11/26 03:26:06;;;;;;;25.80;10.53;;;;;;;;;;5056570;28;20453;-68
2022/11/26 03:28:35;;;;;;;24.67;10.17;;;;;;;;;;5039924;28;20532;-68
2022/11/26 03:31:05;;;;;;;23.93;9.80;;;;;;;;;;5037732;28;20855;-67
2022/11/26 03:33:35;;;;;;;24.83;11.23;;;;;;;;;;5043679;28;20515;-67
2022/11/26 03:36:04;;;;;;;18.30;9.07;;;;;;;;;;5038410;28;20930;-68
2022/11/26 03:38:35;;;;;;;31.03;12.67;;;;;;;;;;5060498;28;20496;-67
2022/11/26 03:41:07;;;;;;;24.10;10.37;;;;;;;;;;5059281;28;20465;-67
2022/11/26 03:43:34;;;;;;;21.00;11.10;;;;;;;;;;5057429;28;20461;-67
2022/11/26 03:46:10;;;;;;;20.83;9.70;;;;;;;;;;5057116;28;20461;-67
2022/11/26 03:48:38;;;;;;;24.43;11.80;;;;;;;;;;5050377;28;20912;-68
2022/11/26 03:51:06;;;;;;;24.20;10.47;;;;;;;;;;5053578;28;20714;-68
2022/11/26 03:53:33;;;;;;;30.13;9.97;;;;;;;;;;5055058;28;20866;-68
2022/11/26 03:56:02;;;;;;;21.00;9.93;;;;;;;;;;5057323;28;20469;-68
2022/11/26 03:58:38;;;;;;;26.20;11.17;;;;;;;;;;5045264;28;20573;-69
2022/11/26 04:01:08;;;;;;;23.30;10.27;;;;;;;;;;5037944;28;20892;-68
2022/11/26 04:03:36;;;;;;;29.67;10.20;;;;;;;;;;5038775;28;20715;-67
2022/11/26 04:06:06;;;;;;;22.73;10.57;;;;;;;;;;5038812;28;20553;-67
2022/11/26 04:08:33;;;;;;;28.43;9.67;;;;;;;;;;5037366;28;20454;-67
2022/11/26 04:11:03;;;;;;;21.97;11.33;;;;;;;;;;5052552;28;20642;-67
2022/11/26 04:13:31;;;;;;;26.63;10.70;;;;;;;;;;5057083;28;20520;-67
2022/11/26 04:15:58;;;;;;;32.10;12.30;;;;;;;;;;5056456;28;20587;-67
2022/11/26 04:18:25;;;;;;;24.03;12.03;;;;;;;;;;5056588;28;20504;-68
2022/11/26 04:20:57;;;;;;;19.10;10.10;;;;;;;;;;5056874;28;20535;-67
2022/11/26 04:23:24;;;;;;;24.83;10.43;;;;;;;;;;5044080;28;20509;-67
2022/11/26 04:25:51;;;;;;;24.87;10.97;;;;;;;;;;5037994;28;20454;-67
2022/11/26 04:28:21;;;;;;;22.43;11.30;;;;;;;;;;5039353;28;20462;-68
2022/11/26 04:30:49;;;;;;;27.23;10.20;;;;;;;;;;5057213;28;20522;-67
2022/11/26 04:33:19;;;;;;;25.53;9.50;;;;;;;;;;5056198;28;20445;-67
2022/11/26 04:35:46;;;;;;;30.07;11.13;;;;;;;;;;5056157;28;20458;-67
2022/11/26 04:38:13;;;;;;;20.87;10.47;;;;;;;;;;5053232;28;20952;-67
2022/11/26 04:40:41;;;;;;;25.50;9.33;;;;;;;;;;5056768;28;20473;-67
2022/11/26 04:43:07;;;;;;;19.30;8.37;;;;;;;;;;5057258;28;20540;-69
2022/11/26 04:45:34;;;;;;;20.00;8.77;;;;;;;;;;5057172;28;20496;-67
2022/11/26 04:48:02;;;;;;;22.93;9.70;;;;;;;;;;5057580;28;20449;-67
2022/11/26 04:50:29;;;;;;;22.80;8.23;;;;;;;;;;5057697;28;20860;-67
2022/11/26 04:52:56;;;;;;;16.77;8.63;;;;;;;;;;5056365;28;20528;-67
2022/11/26 04:55:23;;;;;;;20.73;9.43;;;;;;;;;;5057688;28;20936;-67
2022/11/26 04:57:50;;;;;;;14.60;9.13;;;;;;;;;;5056701;28;20464;-67
2022/11/26 05:00:18;;;;;;;27.60;9.60;;;;;;;;;;5056252;28;20461;-67
2022/11/26 05:02:45;;;;;;;22.53;9.70;;;;;;;;;;5057173;28;20470;-67
2022/11/26 05:05:13;;;;;;;23.70;10.40;;;;;;;;;;5056018;28;20876;-67
2022/11/26 05:07:40;;;;;;;23.03;8.80;;;;;;;;;;5058154;28;20445;-67
2022/11/26 05:10:08;;;;;;;25.13;10.40;;;;;;;;;;5056428;28;20450;-67
2022/11/26 05:12:35;;;;;;;20.23;8.87;;;;;;;;;;5056179;28;20468;-67
2022/11/26 05:15:03;;;;;;;22.70;9.40;;;;;;;;;;5055735;28;20737;-67
2022/11/26 05:17:30;;;;;;;20.97;8.03;;;;;;;;;;5053594;28;20457;-67
2022/11/26 05:19:57;;;;;;;18.37;7.90;;;;;;;;;;5053183;28;20540;-67
2022/11/26 05:22:25;;;;;;;17.70;7.97;;;;;;;;;;5056912;28;20973;-67
2022/11/26 05:24:52;;;;;;;23.93;8.10;;;;;;;;;;5056107;28;20889;-67
2022/11/26 05:27:19;;;;;;;26.33;9.53;;;;;;;;;;5056807;28;20901;-67
2022/11/26 05:29:46;;;;;;;22.80;9.30;;;;;;;;;;5056631;28;20463;-67
2022/11/26 05:32:13;;;;;;;26.63;10.63;;;;;;;;;;5047942;28;20439;-67
2022/11/26 05:34:40;;;;;;;22.63;9.30;;;;;;;;;;5037131;28;20921;-67
2022/11/26 05:37:07;;;;;;;23.90;10.33;;;;;;;;;;5035897;28;20438;-67
2022/11/26 05:39:35;;;;;;;23.63;9.47;;;;;;;;;;5057209;28;20584;-67
2022/11/26 05:42:06;;;;;;;25.27;10.10;;;;;;;;;;5055249;28;20904;-68
2022/11/26 05:44:33;;;;;;;19.73;8.30;;;;;;;;;;5056696;28;20524;-67
2022/11/26 05:47:00;;;;;;;25.87;9.50;;;;;;;;;;5046840;28;20931;-68
2022/11/26 05:49:27;;;;;;;20.20;8.60;;;;;;;;;;5036189;28;20771;-68
2022/11/26 05:51:55;;;;;;;22.53;9.10;;;;;;;;;;5042142;28;20457;-69
2022/11/26 05:54:22;;;;;;;25.07;9.30;;;;;;;;;;5054866;28;20449;-68
2022/11/26 05:56:50;;;;;;;18.17;9.77;;;;;;;;;;5056474;28;20510;-68
2022/11/26 05:59:17;;;;;;;25.80;11.07;;;;;;;;;;5054133;28;20481;-67
2022/11/26 06:01:44;;;;;;;20.87;7.77;;;;;;;;;;5056235;28;20438;-67
2022/11/26 06:04:17;;;;;;;20.20;10.10;;;;;;;;;;5055347;28;20444;-67
2022/11/26 06:06:50;;;;;;;20.87;8.70;;;;;;;;;;5054761;28;20888;-67
2022/11/26 06:09:20;;;;;;;20.57;8.23;;;;;;;;;;5053018;28;20465;-68
2022/11/26 06:11:49;;;;;;;31.13;10.03;;;;;;;;;;5039746;28;20474;-67
2022/11/26 06:14:17;;;;;;;34.87;11.53;;;;;;;;;;5037632;28;21099;-67
2022/11/26 06:16:47;;;;;;;25.63;10.57;;;;;;;;;;5038704;28;20543;-67
2022/11/26 06:19:15;;;;;;;25.57;10.97;;;;;;;;;;5039269;28;20482;-67
2022/11/26 06:21:43;;;;;;;19.70;9.10;;;;;;;;;;5039336;28;20457;-67
2022/11/26 06:24:10;;;;;;;24.73;10.33;;;;;;;;;;5039442;28;20451;-68
2022/11/26 06:26:37;;;;;;;20.03;8.90;;;;;;;;;;5038632;28;20446;-67
2022/11/26 06:29:04;;;;;;;27.80;11.10;;;;;;;;;;5039054;28;20530;-67
2022/11/26 06:31:32;;;;;;;21.80;9.77;;;;;;;;;;5039723;28;20458;-67
2022/11/26 06:33:59;;;;;;;21.63;10.57;;;;;;;;;;5038404;28;20501;-67
2022/11/26 06:36:26;;;;;;;25.67;11.80;;;;;;;;;;5054022;28;20763;-67
2022/11/26 06:38:56;;;;;;;30.17;13.80;;;;;;;;;;5058920;28;20528;-67
2022/11/26 06:41:23;;;;;;;24.13;10.77;;;;;;;;;;5058036;28;20453;-68
2022/11/26 06:43:50;;;;;;;24.40;11.63;;;;;;;;;;5058928;28;20514;-68
2022/11/26 06:46:18;;;;;;;25.30;10.87;;;;;;;;;;5058101;28;20844;-68
2022/11/26 06:48:46;;;;;;;26.47;11.70;;;;;;;;;;5057413;28;20516;-67
2022/11/26 06:51:14;;;;;;;41.73;13.47;;;;;;;;;;5059656;28;20535;-67
2022/11/26 06:53:42;;;;;;;28.73;12.57;;;;;;;;;;5057415;28;21031;-67
2022/11/26 06:56:11;;;;;;;34.20;12.60;;;;;;;;;;5055945;28;20512;-68
2022/11/26 06:58:40;;;;;;;24.10;13.10;;;;;;;;;;5052861;28;20525;-69
2022/11/26 07:01:15;;;;;;;29.10;12.17;;;;;;;;;;5058378;28;20472;-69
2022/11/26 07:03:50;;;;;;;26.53;12.00;;;;;;;;;;5059930;28;20883;-70
2022/11/26 07:06:18;;;;;;;28.23;12.47;;;;;;;;;;5058157;28;20883;-68
2022/11/26 07:08:45;;;;;;;24.33;11.87;;;;;;;;;;5059270;28;20449;-68
2022/11/26 07:11:12;;;;;;;29.80;12.40;;;;;;;;;;5059368;28;21123;-68
2022/11/26 07:13:40;;;;;;;26.40;11.30;;;;;;;;;;5058439;28;20466;-68
2022/11/26 07:16:08;;;;;;;20.50;10.03;;;;;;;;;;5057671;28;20541;-68
2022/11/26 07:18:35;;;;;;;27.50;11.23;;;;;;;;;;5060158;28;20485;-68
2022/11/26 07:21:08;;;;;;;24.17;10.40;;;;;;;;;;5057641;28;20458;-68
2022/11/26 07:23:38;;;;;;;28.60;12.73;;;;;;;;;;5058884;28;20548;-68
2022/11/26 07:26:15;;;;;;;23.73;10.63;;;;;;;;;;5059937;28;20457;-68
2022/11/26 07:28:50;;;;;;;27.13;11.53;;;;;;;;;;5058578;28;20476;-68
2022/11/26 07:31:20;;;;;;;37.53;12.37;;;;;;;;;;5057902;28;20468;-68
2022/11/26 07:33:48;;;;;;;25.67;11.20;;;;;;;;;;5059378;28;20886;-73
2022/11/26 07:36:16;;;;;;;21.77;10.20;;;;;;;;;;5058304;28;20550;-68
2022/11/26 07:38:43;;;;;;;20.60;9.20;;;;;;;;;;5057294;28;21636;-68
2022/11/26 07:41:11;;;;;;;23.40;11.60;;;;;;;;;;5058476;28;20733;-68
2022/11/26 07:43:42;;;;;;;23.90;10.03;;;;;;;;;;5050155;28;20531;-69
2022/11/26 07:46:13;;;;;;;22.60;10.27;;;;;;;;;;5045287;28;20897;-68
2022/11/26 07:48:40;;;;;;;28.93;11.40;;;;;;;;;;5058110;28;20457;-68
2022/11/26 07:51:10;;;;;;;30.43;11.20;;;;;;;;;;5058099;28;20449;-68
2022/11/26 07:53:41;;;;;;;20.50;9.80;;;;;;;;;;5057740;28;20486;-68
2022/11/26 07:56:10;;;;;;;18.97;9.57;;;;;;;;;;5056937;28;20520;-68
2022/11/26 07:58:37;;;;;;;27.13;10.93;;;;;;;;;;5057267;28;21122;-68
2022/11/26 08:01:18;;;;;;;33.60;13.47;;;;;;;;;;5056987;28;20479;-68
2022/11/26 08:04:05;;;;;;;20.23;11.47;;;;;;;;;;5054099;28;20470;-68
2022/11/26 08:06:34;;;;;;;31.73;11.97;;;;;;;;;;5036999;28;20488;-68
2022/11/26 08:09:16;;;;;;;30.07;11.43;;;;;;;;;;5039374;28;20461;-68
2022/11/26 08:11:49;;;;;;;20.07;8.87;;;;;;;;;;5056725;28;21020;-68
2022/11/26 08:14:17;;;;;;;21.50;9.90;;;;;;;;;;5056714;28;20480;-68
2022/11/26 08:16:44;;;;;;;22.70;10.47;;;;;;;;;;5057266;28;21046;-68
2022/11/26 08:19:12;;;;;;;20.83;9.70;;;;;;;;;;5057408;28;21032;-68
2022/11/26 08:21:39;;;;;;;22.23;10.23;;;;;;;;;;5050911;28;20816;-67
2022/11/26 08:24:13;;;;;;;24.53;11.50;;;;;;;;;;5047079;28;20905;-68
2022/11/26 08:26:40;;;;;;;24.77;10.53;;;;;;;;;;5053008;28;20458;-67
2022/11/26 08:29:07;;;;;;;18.60;10.00;;;;;;;;;;5056966;28;20457;-68
2022/11/26 08:31:41;;;;;;;19.93;10.47;;;;;;;;;;5056980;28;20469;-68
2022/11/26 08:34:08;;;;;;;21.00;9.23;;;;;;;;;;5056524;28;20768;-68
2022/11/26 08:36:42;;;;;;;13.90;7.90;;;;;;;;;;5057665;28;20454;-69
2022/11/26 08:39:16;;;;;;;30.23;10.93;;;;;;;;;;5059103;28;20496;-68
2022/11/26 08:41:50;;;;;;;16.50;8.70;;;;;;;;;;5058619;28;20555;-68
2022/11/26 08:44:23;;;;;;;18.13;9.77;;;;;;;;;;5058033;28;20521;-69
2022/11/26 08:46:51;;;;;;;24.47;10.17;;;;;;;;;;5043724;28;20469;-69
2022/11/26 08:49:21;;;;;;;18.73;8.70;;;;;;;;;;5039443;28;20480;-68
2022/11/26 08:51:48;;;;;;;19.03;9.53;;;;;;;;;;5050890;28;20446;-68
2022/11/26 08:54:22;;;;;;;22.60;9.90;;;;;;;;;;5043510;28;20722;-68
2022/11/26 08:57:04;;;;;;;31.77;10.77;;;;;;;;;;5039742;28;20557;-68
2022/11/26 08:59:31;;;;;;;24.30;11.50;;;;;;;;;;5053894;28;20481;-68
2022/11/26 09:01:58;;;;;;;23.10;10.03;;;;;;;;;;5054840;28;20839;-68
2022/11/26 09:04:26;;;;;;;26.87;11.40;;;;;;;;;;5057087;28;20506;-68
2022/11/26 09:06:58;;;;;;;16.13;10.13;;;;;;;;;;5055459;28;20537;-68
2022/11/26 09:09:25;;;;;;;25.67;12.00;;;;;;;;;;5044480;28;20484;-68
2022/11/26 09:12:03;;;;;;;22.87;10.23;;;;;;;;;;5052567;28;20480;-68
2022/11/26 09:14:34;;;;;;;19.53;9.40;;;;;;;;;;5048433;28;20548;-68
2022/11/26 09:17:01;;;;;;;21.97;11.30;;;;;;;;;;5054526;28;20458;-69
2022/11/26 09:19:31;;;;;;;22.03;8.50;;;;;;;;;;5055737;28;20495;-68
2022/11/26 09:21:58;;;;;;;25.57;9.70;;;;;;;;;;5042212;28;20453;-68
2022/11/26 09:24:28;;;;;;;19.03;11.07;;;;;;;;;;5050596;28;20534;-68
2022/11/26 09:27:14;;;;;;;18.87;10.00;;;;;;;;;;5054583;28;20893;-68
2022/11/26 09:29:57;;;;;;;28.07;12.63;;;;;;;;;;5048651;28;20471;-68
2022/11/26 09:32:29;;;;;;;19.93;10.40;;;;;;;;;;5036023;28;20459;-68
2022/11/26 09:34:56;;;;;;;23.43;9.50;;;;;;;;;;5054872;28;20449;-68
2022/11/26 09:37:31;;;;;;;20.80;9.67;;;;;;;;;;5055696;28;20888;-68
2022/11/26 09:40:02;;;;;;;17.87;10.33;;;;;;;;;;5062509;28;20511;-68
2022/11/26 09:42:41;;;;;;;21.70;8.80;;;;;;;;;;5076474;28;20470;-68
2022/11/26 09:45:13;;;;;;;14.03;9.40;;;;;;;;;;5076478;28;20488;-67
2022/11/26 09:47:48;;;;;;;15.70;9.30;;;;;;;;;;5055382;28;20457;-68
2022/11/26 09:50:27;;;;;;;26.57;10.33;;;;;;;;;;5057790;28;20453;-68
2022/11/26 09:52:58;;;;;;;19.97;9.30;;;;;;;;;;5055412;28;20600;-68
2022/11/26 09:55:26;;;;;;;16.13;7.93;;;;;;;;;;5054586;28;20503;-68
2022/11/26 09:57:59;;;;;;;17.30;8.97;;;;;;;;;;5054971;28;20477;-69
2022/11/26 10:00:28;;;;;;;17.43;9.30;;;;;;;;;;5053670;28;20489;-69
2022/11/26 10:02:56;;;;;;;16.07;8.90;;;;;;;;;;5053493;28;20834;-69
2022/11/26 10:05:35;;;;;;;19.60;8.57;;;;;;;;;;5054607;28;20497;-69
2022/11/26 10:08:25;;;;;;;20.23;8.97;;;;;;;;;;5055831;28;20469;-70
2022/11/26 10:10:56;;;;;;;21.10;10.73;;;;;;;;;;5057045;28;20449;-68
2022/11/26 10:13:33;;;;;;;20.20;9.20;;;;;;;;;;5055159;28;20480;-67
2022/11/26 10:16:04;;;;;;;19.57;10.30;;;;;;;;;;5054430;28;20467;-69
2022/11/26 10:18:37;;;;;;;18.00;8.73;;;;;;;;;;5049156;28;20493;-69
2022/11/26 10:21:13;;;;;;;16.10;8.43;;;;;;;;;;5054646;28;20510;-66
2022/11/26 10:26:33;;;;;;;10.47;6.70;;;;;;;;;;5046490;28;20453;-68
2022/11/26 10:29:15;;;;;;;17.40;7.83;;;;;;;;;;5053998;28;20472;-69
2022/11/26 10:31:48;;;;;;;21.93;9.20;;;;;;;;;;5047131;28;20872;-67
2022/11/26 10:34:23;;;;;;;14.17;8.30;;;;;;;;;;5039796;28;20450;-69
2022/11/26 10:40:11;;;;;;;22.13;9.70;;;;;;;;;;5032252;28;20542;-69
2022/11/26 10:42:46;;;;;;;15.30;7.87;;;;;;;;;;5047569;28;20745;-68
2022/11/26 10:45:22;;;;;;;18.83;9.77;;;;;;;;;;5050798;28;20445;-68
2022/11/26 10:47:50;;;;;;;11.77;7.70;;;;;;;;;;5048292;28;20983;-69
2022/11/26 10:50:25;;;;;;;16.97;9.10;;;;;;;;;;5055229;28;20445;-69
2022/11/26 10:52:53;;;;;;;18.90;9.10;;;;;;;;;;5039589;28;20472;-68
2022/11/26 10:55:23;;;;;;;32.47;9.33;;;;;;;;;;5048639;28;20457;-67
2022/11/26 10:57:57;;;;;;;11.40;7.40;;;;;;;;;;5054320;28;20731;-67
2022/11/26 11:00:33;;;;;;;20.63;8.80;;;;;;;;;;5037791;28;20488;-67
2022/11/26 11:03:00;;;;;;;12.50;8.30;;;;;;;;;;5045722;28;20468;-71
2022/11/26 11:05:29;;;;;;;15.20;8.60;;;;;;;;;;5047746;28;20451;-70
2022/11/26 11:07:57;;;;;;;20.00;9.43;;;;;;;;;;5055462;28;20547;-68
2022/11/26 11:10:25;;;;;;;13.73;8.00;;;;;;;;;;5038679;28;20456;-68
2022/11/26 11:13:08;;;;;;;13.60;7.17;;;;;;;;;;5051583;28;20461;-68
2022/11/26 11:15:42;;;;;;;24.67;7.60;;;;;;;;;;5040397;28;20461;-68
2022/11/26 11:18:23;;;;;;;22.30;9.67;;;;;;;;;;5056807;28;20461;-68
2022/11/26 11:21:05;;;;;;;15.57;7.20;;;;;;;;;;5039768;28;20516;-68
2022/11/26 11:23:35;;;;;;;13.70;7.43;;;;;;;;;;5044943;28;20461;-68
2022/11/26 11:26:08;;;;;;;14.77;8.90;;;;;;;;;;5052649;28;20916;-69
2022/11/26 11:28:41;;;;;;;16.57;8.83;;;;;;;;;;5049012;28;21138;-69
2022/11/26 11:31:15;;;;;;;17.20;9.97;;;;;;;;;;5058532;28;20921;-69
2022/11/26 11:33:46;;;;;;;17.60;9.90;;;;;;;;;;5058362;28;20939;-68
2022/11/26 11:36:29;;;;;;;18.13;10.17;;;;;;;;;;5057500;28;20894;-69
2022/11/26 11:39:02;;;;;;;16.13;10.53;;;;;;;;;;5055036;28;20481;-69
2022/11/26 11:41:32;;;;;;;13.70;9.00;;;;;;;;;;5055947;28;20536;-70
2022/11/26 11:44:06;;;;;;;24.10;10.43;;;;;;;;;;5056383;28;20458;-69
2022/11/26 11:46:59;;;;;;;20.60;11.37;;;;;;;;;;5044174;28;20453;-68
2022/11/26 11:49:32;;;;;;;39.80;16.40;;;;;;;;;;5052869;28;20459;-68
2022/11/26 11:52:10;;;;;;;36.63;18.10;;;;;;;;;;5058440;28;20962;-69
2022/11/26 11:57:51;;;;;;;15.80;8.10;;;;;;;;;;5058875;28;20476;-70
2022/11/26 12:00:48;;;;;;;33.73;11.73;;;;;;;;;;5047104;28;20520;-69
2022/11/26 12:06:50;;;;;;;16.70;10.00;;;;;;;;;;5051715;28;20714;-68
2022/11/26 12:09:29;;;;;;;24.80;10.43;;;;;;;;;;5057295;28;20880;-68
2022/11/26 12:11:58;;;;;;;21.10;10.23;;;;;;;;;;5058639;28;20765;-68
2022/11/26 12:14:29;;;;;;;24.23;11.50;;;;;;;;;;5058237;28;20463;-70
2022/11/26 12:17:07;;;;;;;26.40;10.80;;;;;;;;;;5051792;28;20451;-69
2022/11/26 12:19:39;;;;;;;22.73;9.07;;;;;;;;;;5056523;28;20488;-68
2022/11/26 12:22:27;;;;;;;18.50;9.50;;;;;;;;;;5055891;28;20450;-69
2022/11/26 12:24:57;;;;;;;17.03;7.53;;;;;;;;;;5052053;28;20465;-68
2022/11/26 12:27:39;;;;;;;16.60;9.47;;;;;;;;;;5054369;28;20457;-68
2022/11/26 12:30:13;;;;;;;16.20;8.93;;;;;;;;;;5049441;28;20474;-69
2022/11/26 12:32:49;;;;;;;14.67;8.53;;;;;;;;;;5055574;28;20457;-68
2022/11/26 12:35:28;;;;;;;16.40;8.83;;;;;;;;;;5054216;28;20783;-69
2022/11/26 12:38:06;;;;;;;31.90;11.20;;;;;;;;;;5049779;28;20537;-70
2022/11/26 12:40:53;;;;;;;34.03;11.20;;;;;;;;;;5045517;28;20557;-69
2022/11/26 12:43:55;;;;;;;22.23;12.13;;;;;;;;;;5038771;28;20472;-68
2022/11/26 12:46:26;;;;;;;16.63;9.63;;;;;;;;;;5042222;28;20838;-68
2022/11/26 12:49:12;;;;;;;17.67;9.10;;;;;;;;;;5058999;28;20515;-68
2022/11/26 12:54:46;;;;;;;19.50;8.33;;;;;;;;;;5056807;28;20461;-69
2022/11/26 12:58:09;;;;;;;20.10;9.07;;;;;;;;;;5059695;28;20449;-68
2022/11/26 13:00:41;;;;;;;15.07;8.93;;;;;;;;;;5040285;28;20485;-70
2022/11/26 13:03:16;;;;;;;13.10;7.87;;;;;;;;;;5058549;28;20873;-70
2022/11/26 13:05:56;;;;;;;24.10;9.80;;;;;;;;;;5072500;28;20568;-70
2022/11/26 13:08:37;;;;;;;28.27;8.47;;;;;;;;;;5044126;28;20484;-69
2022/11/26 13:11:38;;;;;;;19.20;8.33;;;;;;;;;;5048748;28;20457;-70
2022/11/26 13:17:27;;;;;;;14.53;8.40;;;;;;;;;;5050058;28;20469;-69
2022/11/26 13:20:08;;;;;;;13.03;7.90;;;;;;;;;;5044647;28;20481;-70
2022/11/26 13:22:59;;;;;;;28.63;9.60;;;;;;;;;;5055979;28;20496;-68
2022/11/26 13:25:37;;;;;;;11.90;5.50;;;;;;;;;;5054444;28;20599;-69
2022/11/26 13:28:13;;;;;;;12.73;8.10;;;;;;;;;;5050332;28;20454;-69
2022/11/26 13:31:02;;;;;;;20.27;10.37;;;;;;;;;;5051964;28;20457;-70
2022/11/26 13:33:58;;;;;;;18.13;9.00;;;;;;;;;;5037262;28;20489;-70
2022/11/26 13:36:40;;;;;;;29.97;10.50;;;;;;;;;;5043507;28;20689;-69
2022/11/26 13:40:04;;;;;;;16.83;9.77;;;;;;;;;;5038953;28;20486;-69
2022/11/26 13:42:57;;;;;;;13.63;8.77;;;;;;;;;;5056365;28;20578;-70
2022/11/26 13:45:44;;;;;;;18.17;8.90;;;;;;;;;;5031487;28;20545;-70
2022/11/26 13:48:23;;;;;;;12.23;6.43;;;;;;;;;;5036619;28;20462;-69
2022/11/26 13:50:52;;;;;;;16.63;8.70;;;;;;;;;;5054153;28;20453;-68
2022/11/26 13:53:24;;;;;;;22.47;8.67;;;;;;;;;;5060172;28;20457;-68
2022/11/26 13:56:04;;;;;;;15.80;7.67;;;;;;;;;;5053353;28;20946;-68
2022/11/26 13:58:35;;;;;;;18.57;8.60;;;;;;;;;;5057406;28;20511;-69
2022/11/26 14:01:18;;;;;;;18.67;7.83;;;;;;;;;;5059313;28;20445;-69
2022/11/26 14:04:03;;;;;;;20.00;8.87;;;;;;;;;;5039233;28;20483;-68
2022/11/26 14:06:44;;;;;;;14.23;8.10;;;;;;;;;;5056023;28;20568;-70
2022/11/26 14:09:38;;;;;;;15.63;6.60;;;;;;;;;;5036781;28;20477;-69
2022/11/26 14:12:12;;;;;;;22.60;9.10;;;;;;;;;;5055921;28;21087;-69
2022/11/26 14:14:42;;;;;;;14.60;7.30;;;;;;;;;;5043684;28;20483;-69
2022/11/26 14:17:20;;;;;;;15.93;7.60;;;;;;;;;;5040044;28;20909;-68
2022/11/26 14:20:10;;;;;;;15.80;8.10;;;;;;;;;;5039915;28;20535;-69
2022/11/26 14:22:46;;;;;;;17.30;9.07;;;;;;;;;;5059700;28;20861;-68
2022/11/26 14:25:19;;;;;;;17.23;10.27;;;;;;;;;;5051563;28;20457;-68
2022/11/26 14:28:00;;;;;;;25.30;9.20;;;;;;;;;;5044411;28;20433;-68
2022/11/26 14:30:28;;;;;;;22.27;8.17;;;;;;;;;;5057977;28;20452;-68
2022/11/26 14:33:13;;;;;;;15.00;9.30;;;;;;;;;;5060411;28;20563;-68
2022/11/26 14:35:41;;;;;;;20.00;9.17;;;;;;;;;;5059893;28;20543;-67
2022/11/26 14:38:46;;;;;;;23.23;10.03;;;;;;;;;;5058005;28;20512;-68
2022/11/26 14:41:16;;;;;;;21.10;9.97;;;;;;;;;;5053841;28;20468;-67
2022/11/26 14:43:52;;;;;;;23.10;9.20;;;;;;;;;;5047537;28;20454;-67
2022/11/26 14:46:19;;;;;;;22.27;9.40;;;;;;;;;;5047943;28;20468;-67
2022/11/26 14:48:53;;;;;;;16.73;9.93;;;;;;;;;;5040278;28;20922;-68
2022/11/26 14:51:30;;;;;;;19.23;10.53;;;;;;;;;;5045015;28;20469;-68
2022/11/26 14:54:03;;;;;;;16.43;9.83;;;;;;;;;;5048581;28;20461;-68
2022/11/26 14:56:31;;;;;;;17.10;7.73;;;;;;;;;;5045927;28;21116;-68
2022/11/26 14:59:10;;;;;;;19.00;8.70;;;;;;;;;;5054891;28;20587;-68
2022/11/26 15:01:46;;;;;;;17.63;9.57;;;;;;;;;;5055783;28;20516;-68
2022/11/26 15:04:22;;;;;;;18.37;9.80;;;;;;;;;;5041152;28;20453;-68
2022/11/26 15:06:49;;;;;;;17.57;9.60;;;;;;;;;;5048404;28;20449;-68
2022/11/26 15:09:27;;;;;;;21.53;11.00;;;;;;;;;;5036966;28;20465;-68
2022/11/26 15:12:09;;;;;;;21.00;9.80;;;;;;;;;;5052056;28;20533;-67
2022/11/26 15:14:42;;;;;;;20.17;9.73;;;;;;;;;;5058112;28;20567;-68
2022/11/26 15:17:14;;;;;;;32.50;18.00;;;;;;;;;;5041814;28;20453;-67
2022/11/26 15:19:42;;;;;;;20.53;9.50;;;;;;;;;;5053745;28;20477;-68
2022/11/26 15:22:20;;;;;;;22.30;8.90;;;;;;;;;;5041588;28;20479;-68